createdAt,value
2023-05-19T00:02:58.490Z,71
2023-05-19T00:07:59.684Z,71
2023-05-19T00:13:01.361Z,71
2023-05-19T00:18:03.364Z,71
2023-05-19T00:23:04.429Z,70
2023-05-19T00:28:06.231Z,71
2023-05-19T00:33:07.458Z,72
2023-05-19T00:43:10.816Z,71
2023-05-19T00:53:14.235Z,73
2023-05-19T01:13:20.383Z,73
2023-05-19T01:23:24.051Z,73
2023-05-19T02:03:38.538Z,74
2023-05-19T02:08:39.718Z,75
2023-05-19T02:33:48.711Z,75
2023-05-19T03:08:59.848Z,75
2023-05-19T03:14:02.016Z,75
2023-05-19T03:19:03.908Z,76
2023-05-19T03:29:07.948Z,76
2023-05-19T03:34:09.213Z,76
2023-05-19T03:39:10.479Z,76
2023-05-19T03:44:12.339Z,76
2023-05-19T03:49:14.221Z,77
2023-05-19T03:54:15.815Z,77
2023-05-19T03:59:17.431Z,78
2023-05-19T04:04:18.801Z,77
2023-05-19T04:09:20.018Z,78
2023-05-19T04:14:21.771Z,77
2023-05-19T04:19:23.792Z,78
2023-05-19T04:24:25.424Z,77
2023-05-19T04:29:27.502Z,77
2023-05-19T04:34:29.049Z,77
2023-05-19T04:39:30.972Z,77
2023-05-19T04:44:33.094Z,77
2023-05-19T04:49:34.914Z,77
2023-05-19T04:54:36.903Z,77
2023-05-19T04:59:38.406Z,76
2023-05-19T05:04:40.039Z,76
2023-05-19T05:09:41.850Z,76
2023-05-19T05:14:43.033Z,76
2023-05-19T05:19:44.343Z,76
2023-05-19T05:24:46.415Z,76
2023-05-19T05:29:48.027Z,75
2023-05-19T05:34:49.688Z,74
2023-05-19T05:39:51.082Z,74
2023-05-19T05:44:52.463Z,73
2023-05-19T05:49:54.333Z,74
2023-05-19T05:54:56.243Z,71
2023-05-19T05:59:57.638Z,71
2023-05-19T06:04:59.503Z,70
2023-05-19T06:10:01.314Z,69
2023-05-19T06:15:02.564Z,69
2023-05-19T06:20:03.799Z,65
2023-05-19T06:25:05.010Z,63
2023-05-19T06:30:06.859Z,61
2023-05-19T06:35:08.205Z,59
2023-05-19T06:40:10.126Z,59
2023-05-19T06:45:11.530Z,58
2023-05-19T06:50:12.900Z,59
2023-05-19T06:55:14.218Z,58
2023-05-19T07:00:17.901Z,59
2023-05-19T07:05:17.278Z,59
2023-05-19T07:10:18.767Z,58
2023-05-19T07:15:20.816Z,59
2023-05-19T07:20:22.099Z,56
2023-05-19T07:25:23.369Z,58
2023-05-19T07:30:24.703Z,57
2023-05-19T07:35:26.391Z,57
2023-05-19T07:40:28.046Z,58
2023-05-19T07:45:29.967Z,59
2023-05-19T07:50:32.250Z,58
2023-05-19T07:55:34.001Z,58
2023-05-19T08:00:35.854Z,59
2023-05-19T08:05:37.262Z,59
2023-05-19T08:10:39.087Z,59
2023-05-19T08:15:40.889Z,59
2023-05-19T08:20:41.992Z,60
2023-05-19T08:25:43.468Z,60
2023-05-19T08:30:44.692Z,59
2023-05-19T08:35:46.759Z,58
2023-05-19T08:40:48.640Z,59
2023-05-19T08:45:50.552Z,59
2023-05-19T08:50:51.937Z,59
2023-05-19T08:55:53.319Z,60
2023-05-19T09:00:54.465Z,60
2023-05-19T09:05:55.652Z,60
2023-05-19T09:10:57.549Z,60
2023-05-19T09:15:59.015Z,61
2023-05-19T09:21:00.963Z,61
2023-05-19T09:26:02.202Z,60
2023-05-19T09:31:03.848Z,61
2023-05-19T09:36:05.645Z,61
2023-05-19T09:41:07.833Z,61
2023-05-19T09:46:10.081Z,61
2023-05-19T09:51:10.800Z,59
2023-05-19T09:56:12.310Z,59
2023-05-19T10:01:13.822Z,59
2023-05-19T10:06:15.370Z,60
2023-05-19T10:11:17.024Z,60
2023-05-19T10:16:19.166Z,60
2023-05-19T10:21:20.782Z,60
2023-05-19T10:26:22.154Z,61
2023-05-19T10:31:23.479Z,61
2023-05-19T10:36:24.825Z,61
2023-05-19T10:41:26.125Z,62
2023-05-19T10:46:28.023Z,61
2023-05-19T10:51:29.378Z,61
2023-05-19T10:56:31.221Z,60
2023-05-19T11:01:33.236Z,60
2023-05-19T11:06:35.188Z,59
2023-05-19T11:11:37.171Z,59
2023-05-19T11:16:39.181Z,58
2023-05-19T11:21:41.142Z,58
2023-05-19T11:26:42.533Z,58
2023-05-19T11:31:44.199Z,58
2023-05-19T11:36:45.339Z,58
2023-05-19T11:41:46.564Z,58
2023-05-19T11:46:48.100Z,58
2023-05-19T11:51:49.982Z,57
2023-05-19T11:56:51.487Z,56
2023-05-19T12:01:53.174Z,57
2023-05-19T12:06:55.079Z,56
2023-05-19T12:11:56.957Z,56
2023-05-19T12:16:58.751Z,56
2023-05-19T12:22:02.174Z,56
2023-05-19T12:27:02.206Z,55
2023-05-19T12:32:04.375Z,55
2023-05-19T12:37:05.874Z,55
2023-05-19T12:42:07.622Z,55
2023-05-19T12:42:13.937Z,55
2023-05-19T12:47:15.177Z,55
2023-05-19T12:52:16.396Z,56
2023-05-19T12:57:17.932Z,55
2023-05-19T13:02:20.192Z,54
2023-05-19T13:07:21.404Z,55
2023-05-19T13:12:22.933Z,55
2023-05-19T13:17:25.101Z,54
2023-05-19T13:22:26.498Z,55
2023-05-19T13:27:27.955Z,55
2023-05-19T13:32:29.658Z,55
2023-05-19T13:37:31.140Z,55
2023-05-19T13:42:32.660Z,55
2023-05-19T13:47:34.155Z,55
2023-05-19T13:52:36.046Z,55
2023-05-19T13:57:37.285Z,55
2023-05-19T14:02:38.796Z,55
2023-05-19T14:07:40.489Z,55
2023-05-19T14:12:58.579Z,54
2023-05-19T14:17:43.347Z,54
2023-05-19T14:22:45.174Z,54
2023-05-19T14:27:46.471Z,54
2023-05-19T14:32:47.750Z,54
2023-05-19T14:37:49.184Z,54
2023-05-19T14:42:50.777Z,54
2023-05-19T14:47:52.786Z,53
2023-05-19T14:52:54.273Z,54
2023-05-19T14:57:55.784Z,53
2023-05-19T15:02:57.646Z,54
2023-05-19T15:07:58.881Z,54
2023-05-19T15:13:00.632Z,53
2023-05-19T15:18:02.484Z,53
2023-05-19T15:23:04.266Z,54
2023-05-19T15:28:05.585Z,53
2023-05-19T15:33:07.168Z,54
2023-05-19T15:38:08.980Z,54
2023-05-19T15:58:15.913Z,54
2023-05-19T16:33:28.290Z,55
2023-05-19T16:58:37.108Z,55
2023-05-19T17:03:39.125Z,55
2023-05-19T17:28:46.765Z,55
2023-05-19T17:53:54.968Z,56
2023-05-19T18:19:03.958Z,57
2023-05-19T18:29:07.584Z,58
2023-05-19T18:34:08.868Z,58
2023-05-19T18:39:11.009Z,59
2023-05-19T18:44:13.021Z,59
2023-05-19T18:49:14.872Z,60
2023-05-19T18:54:16.961Z,59
2023-05-19T18:59:18.560Z,59
2023-05-19T19:04:20.543Z,60
2023-05-19T19:09:21.974Z,60
2023-05-19T19:14:23.980Z,60
2023-05-19T19:19:26.145Z,60
2023-05-19T19:24:27.875Z,61
2023-05-19T19:29:29.290Z,61
2023-05-19T19:34:31.233Z,62
2023-05-19T19:39:32.708Z,62
2023-05-19T19:44:34.238Z,61
2023-05-19T19:49:35.865Z,62
2023-05-19T19:54:37.058Z,62
2023-05-19T19:59:38.836Z,62
2023-05-19T20:04:40.452Z,62
2023-05-19T20:09:42.084Z,62
2023-05-19T20:14:43.800Z,62
2023-05-19T20:19:45.162Z,62
2023-05-19T20:24:47.081Z,63
2023-05-19T20:29:48.494Z,63
2023-05-19T20:34:50.222Z,63
2023-05-19T20:39:51.768Z,64
2023-05-19T20:44:53.054Z,64
2023-05-19T20:49:55.045Z,64
2023-05-19T20:54:57.166Z,64
2023-05-19T20:59:59.157Z,65
2023-05-19T21:05:00.637Z,65
2023-05-19T21:10:01.880Z,65
2023-05-19T21:15:03.249Z,65
2023-05-19T21:20:04.684Z,65
2023-05-19T21:25:06.201Z,65
2023-05-19T21:30:07.471Z,65
2023-05-19T21:35:09.476Z,65
2023-05-19T21:40:10.701Z,65
2023-05-19T21:45:12.390Z,65
2023-05-19T21:50:13.787Z,65
2023-05-19T21:55:15.215Z,66
2023-05-19T22:00:17.382Z,66
2023-05-19T22:05:19.104Z,66
2023-05-19T22:10:21.074Z,67
2023-05-19T22:15:22.655Z,67
2023-05-19T22:20:23.906Z,67
2023-05-19T22:25:25.198Z,67
2023-05-19T22:30:26.468Z,68
2023-05-19T22:35:27.933Z,68
2023-05-19T22:40:29.204Z,68
2023-05-19T22:45:30.730Z,68
2023-05-19T22:50:32.496Z,68
2023-05-19T22:55:34.676Z,68
2023-05-19T23:00:35.983Z,69
2023-05-19T23:05:37.661Z,69
2023-05-19T23:10:39.190Z,70
2023-05-19T23:15:41.121Z,70
2023-05-19T23:20:42.364Z,71
2023-05-19T23:25:45.213Z,71
2023-05-19T23:30:46.395Z,72
2023-05-19T23:35:48.284Z,72
2023-05-19T23:40:49.567Z,72
2023-05-19T23:45:51.795Z,73
2023-05-19T23:50:52.921Z,73
2023-05-19T23:55:56.417Z,73
